Scottish Viking — IBDZ — position and weather

sailwx.info

Track history (hours):
 
Tides and Currents Weather Stations Pressure Air Temp Water Temp Dewpoint Dewpoint Depression Visibility Wind Speed Wind Dir Waves Ship Positions

Scottish Viking

Last reported at 2014-Jul-30 00:21 UTC. Time now 2014-Aug-01 22:38 UTC.
Position N 57°48' E 020°25'.

Length 186 m; draft 6.4 m.

Type: Ship. MMSI: 247265800.

Date/timePositionNaut miles runAvg speedWind from/ knotsBaromVisibWave heightAir tempDewpointWater temp
2014-Jul-30 00:21N 57°48' E 020°25'1514.2
2014-Jul-29 23:19N 57°56' E 020°01'1114.2
2014-Jul-29 22:33N 58°02' E 019°44'1414.0
2014-Jul-29 21:33N 58°09' E 019°22'1514.0
2014-Jul-29 20:29N 58°18' E 018°59'1314.2
2014-Jul-29 19:33N 58°28' E 018°41'1413.7
2014-Jul-29 18:30N 58°38' E 018°22'1413.3
2014-Jul-29 17:28N 58°48' E 018°03'18 1.6
2014-Jul-29 06:11N 58°35' E 018°27'1911.5
2014-Jul-29 04:33N 58°22' E 018°52'1713.9
2014-Jul-29 03:21N 58°11' E 019°16'1614.3
2014-Jul-29 02:14N 58°03' E 019°42'1114.3
2014-Jul-29 01:27N 57°57' E 019°60'1914.2
2014-Jul-29 00:09N 57°47' E 020°30'39 3.6
2014-Jul-28 13:15N 58°08' E 019°27'61 8.5
2014-Jul-28 06:04N 58°49' E 018°01'1523.0
2014-Jul-28 05:25N 58°39' E 018°22'20 0.8
2014-Jul-27 03:33N 58°55' E 017°58'8 7.7
2014-Jul-27 02:31N 58°47' E 018°05'1314.1
2014-Jul-27 01:33N 58°38' E 018°23'1413.8
2014-Jul-27 00:32N 58°27' E 018°40'1514.1
2014-Jul-26 23:27N 58°16' E 019°01'1314.3
2014-Jul-26 22:33N 58°09' E 019°21'1414.2
2014-Jul-26 21:33N 58°03' E 019°45'49 3.0
2014-Jul-26 05:07N 57°36' E 021°03'2012.7
2014-Jul-26 03:33N 57°46' E 020°30'1414.1
2014-Jul-26 02:33N 57°53' E 020°07'1413.9
2014-Jul-26 01:33N 58°01' E 019°47'1414.1
2014-Jul-26 00:33N 58°08' E 019°23'1414.1
2014-Jul-25 23:33N 58°16' E 019°01'1414.4
2014-Jul-25 22:33N 58°26' E 018°43'1414.5
2014-Jul-25 21:33N 58°37' E 018°24'1414.0
2014-Jul-25 20:34N 58°47' E 018°05'8 0.6
2014-Jul-25 05:32N 58°55' E 017°58'1816.5
2014-Jul-25 04:28N 58°40' E 018°18'1111.2
2014-Jul-25 03:31N 58°33' E 018°32'1414.8
2014-Jul-25 02:33N 58°22' E 018°51'1514.9
2014-Jul-25 01:33N 58°12' E 019°11'1413.8
2014-Jul-25 00:31N 58°11' E 019°38'9 9.1
2014-Jul-24 23:30N 58°02' E 019°40'1814.7
2014-Jul-24 22:15N 57°44' E 019°31'912.2
2014-Jul-24 21:31N 57°39' E 019°44'1515.2
2014-Jul-24 20:34N 57°37' E 020°11'1514.9
2014-Jul-24 19:33N 57°35' E 020°39'32 1.8
2014-Jul-24 02:22N 57°56' E 019°56'1214.4
2014-Jul-24 01:33N 58°03' E 019°38'1514.5
2014-Jul-24 00:33N 58°11' E 019°15'1614.5
2014-Jul-23 23:27N 58°21' E 018°52'2014.8
2014-Jul-23 22:05N 58°36' E 018°25'814.5
2014-Jul-23 21:33N 58°42' E 018°15'1413.3
2014-Jul-23 20:32N 58°53' E 018°01'37 6.1
2014-Jul-23 14:33N 58°25' E 018°45'2222.3
2014-Jul-23 13:33N 58°10' E 019°17'1312.6
2014-Jul-23 12:34N 58°04' E 019°38'1414.4
2014-Jul-23 11:34N 57°57' E 020°01'1514.5
2014-Jul-23 10:33N 57°49' E 020°25'1614.3
2014-Jul-23 09:25N 57°40' E 020°50'28 4.7
2014-Jul-23 03:23N 57°24' E 021°33'1619.4
2014-Jul-23 02:34N 57°33' E 021°09'1110.6
2014-Jul-23 01:34N 57°39' E 020°53'1414.2
2014-Jul-23 00:33N 57°46' E 020°30'1414.2
2014-Jul-22 23:33N 57°54' E 020°08'1414.5
2014-Jul-22 22:33N 58°02' E 019°44'1514.5
2014-Jul-22 21:33N 58°09' E 019°21'1514.5
2014-Jul-22 20:33N 58°18' E 018°59'1514.8
2014-Jul-22 19:33N 58°29' E 018°39'34 2.8
2014-Jul-22 07:31N 58°54' E 017°58'1411.6
2014-Jul-22 06:16N 58°43' E 018°14'2413.9
2014-Jul-22 04:33N 58°26' E 018°46'1414.5
2014-Jul-22 03:34N 58°15' E 019°05'1514.6
2014-Jul-22 02:34N 58°07' E 019°28'1515.1
2014-Jul-22 01:34N 57°59' E 019°53'1515.2
2014-Jul-22 00:34N 57°51' E 020°17'1514.8
2014-Jul-21 23:34N 57°44' E 020°41'1514.6
2014-Jul-21 22:33N 57°36' E 021°04'4 0.6
2014-Jul-21 16:33N 57°34' E 021°09'2322.9
2014-Jul-21 15:33N 57°45' E 020°33'3122.9
2014-Jul-21 14:13N 58°02' E 019°44'913.9
2014-Jul-21 13:33N 58°06' E 019°29'1312.9
2014-Jul-21 12:33N 58°13' E 019°09'1514.3
2014-Jul-21 11:32N 58°24' E 018°50'1714.1
2014-Jul-21 10:19N 58°36' E 018°26'46 5.2
2014-Jul-21 01:33N 58°06' E 019°32'1615.1
2014-Jul-21 00:29N 57°58' E 019°59'3015.2
2014-Jul-20 22:33N 57°42' E 020°45'31 4.2
2014-Jul-20 15:15N 57°24' E 021°32'1420.0
2014-Jul-20 14:33N 57°32' E 021°12'2823.0
2014-Jul-20 13:22N 57°47' E 020°28'6215.3
2014-Jul-20 09:17N 58°22' E 018°50'1014.4
2014-Jul-20 08:33N 58°30' E 018°37'  
Track history (hours):
 
Tides and Currents Weather Stations Pressure Air Temp Water Temp Dewpoint Dewpoint Depression Visibility Wind Speed Wind Dir Waves Ship Positions

Scottish Viking

Last reported at 2014-Jul-30 00:21 UTC. Time now 2014-Aug-01 22:38 UTC.
Position N 57°48' E 020°25'.

Length 186 m; draft 6.4 m.

Type: Ship. MMSI: 247265800.

Date/timePositionNaut miles runAvg speedWind from/ knotsBaromVisibWave heightAir tempDewpointWater temp
2014-Jul-30 00:21N 57°48' E 020°25'1514.2
2014-Jul-29 23:19N 57°56' E 020°01'1114.2
2014-Jul-29 22:33N 58°02' E 019°44'1414.0
2014-Jul-29 21:33N 58°09' E 019°22'1514.0
2014-Jul-29 20:29N 58°18' E 018°59'1314.2
2014-Jul-29 19:33N 58°28' E 018°41'1413.7
2014-Jul-29 18:30N 58°38' E 018°22'1413.3
2014-Jul-29 17:28N 58°48' E 018°03'18 1.6
2014-Jul-29 06:11N 58°35' E 018°27'1911.5
2014-Jul-29 04:33N 58°22' E 018°52'1713.9
2014-Jul-29 03:21N 58°11' E 019°16'1614.3
2014-Jul-29 02:14N 58°03' E 019°42'1114.3
2014-Jul-29 01:27N 57°57' E 019°60'1914.2
2014-Jul-29 00:09N 57°47' E 020°30'39 3.6
2014-Jul-28 13:15N 58°08' E 019°27'61 8.5
2014-Jul-28 06:04N 58°49' E 018°01'1523.0
2014-Jul-28 05:25N 58°39' E 018°22'20 0.8
2014-Jul-27 03:33N 58°55' E 017°58'8 7.7
2014-Jul-27 02:31N 58°47' E 018°05'1314.1
2014-Jul-27 01:33N 58°38' E 018°23'1413.8
2014-Jul-27 00:32N 58°27' E 018°40'1514.1
2014-Jul-26 23:27N 58°16' E 019°01'1314.3
2014-Jul-26 22:33N 58°09' E 019°21'1414.2
2014-Jul-26 21:33N 58°03' E 019°45'49 3.0
2014-Jul-26 05:07N 57°36' E 021°03'2012.7
2014-Jul-26 03:33N 57°46' E 020°30'1414.1
2014-Jul-26 02:33N 57°53' E 020°07'1413.9
2014-Jul-26 01:33N 58°01' E 019°47'1414.1
2014-Jul-26 00:33N 58°08' E 019°23'1414.1
2014-Jul-25 23:33N 58°16' E 019°01'1414.4
2014-Jul-25 22:33N 58°26' E 018°43'1414.5
2014-Jul-25 21:33N 58°37' E 018°24'1414.0
2014-Jul-25 20:34N 58°47' E 018°05'8 0.6
2014-Jul-25 05:32N 58°55' E 017°58'1816.5
2014-Jul-25 04:28N 58°40' E 018°18'1111.2
2014-Jul-25 03:31N 58°33' E 018°32'1414.8
2014-Jul-25 02:33N 58°22' E 018°51'1514.9
2014-Jul-25 01:33N 58°12' E 019°11'1413.8
2014-Jul-25 00:31N 58°11' E 019°38'9 9.1
2014-Jul-24 23:30N 58°02' E 019°40'1814.7
2014-Jul-24 22:15N 57°44' E 019°31'912.2
2014-Jul-24 21:31N 57°39' E 019°44'1515.2
2014-Jul-24 20:34N 57°37' E 020°11'1514.9
2014-Jul-24 19:33N 57°35' E 020°39'32 1.8
2014-Jul-24 02:22N 57°56' E 019°56'1214.4
2014-Jul-24 01:33N 58°03' E 019°38'1514.5
2014-Jul-24 00:33N 58°11' E 019°15'1614.5
2014-Jul-23 23:27N 58°21' E 018°52'2014.8
2014-Jul-23 22:05N 58°36' E 018°25'814.5
2014-Jul-23 21:33N 58°42' E 018°15'1413.3
2014-Jul-23 20:32N 58°53' E 018°01'37 6.1
2014-Jul-23 14:33N 58°25' E 018°45'2222.3
2014-Jul-23 13:33N 58°10' E 019°17'1312.6
2014-Jul-23 12:34N 58°04' E 019°38'1414.4
2014-Jul-23 11:34N 57°57' E 020°01'1514.5
2014-Jul-23 10:33N 57°49' E 020°25'1614.3
2014-Jul-23 09:25N 57°40' E 020°50'28 4.7
2014-Jul-23 03:23N 57°24' E 021°33'1619.4
2014-Jul-23 02:34N 57°33' E 021°09'1110.6
2014-Jul-23 01:34N 57°39' E 020°53'1414.2
2014-Jul-23 00:33N 57°46' E 020°30'1414.2
2014-Jul-22 23:33N 57°54' E 020°08'1414.5
2014-Jul-22 22:33N 58°02' E 019°44'1514.5
2014-Jul-22 21:33N 58°09' E 019°21'1514.5
2014-Jul-22 20:33N 58°18' E 018°59'1514.8
2014-Jul-22 19:33N 58°29' E 018°39'34 2.8
2014-Jul-22 07:31N 58°54' E 017°58'1411.6
2014-Jul-22 06:16N 58°43' E 018°14'2413.9
2014-Jul-22 04:33N 58°26' E 018°46'1414.5
2014-Jul-22 03:34N 58°15' E 019°05'1514.6
2014-Jul-22 02:34N 58°07' E 019°28'1515.1
2014-Jul-22 01:34N 57°59' E 019°53'1515.2
2014-Jul-22 00:34N 57°51' E 020°17'1514.8
2014-Jul-21 23:34N 57°44' E 020°41'1514.6
2014-Jul-21 22:33N 57°36' E 021°04'4 0.6
2014-Jul-21 16:33N 57°34' E 021°09'2322.9
2014-Jul-21 15:33N 57°45' E 020°33'3122.9
2014-Jul-21 14:13N 58°02' E 019°44'913.9
2014-Jul-21 13:33N 58°06' E 019°29'1312.9
2014-Jul-21 12:33N 58°13' E 019°09'1514.3
2014-Jul-21 11:32N 58°24' E 018°50'1714.1
2014-Jul-21 10:19N 58°36' E 018°26'46 5.2
2014-Jul-21 01:33N 58°06' E 019°32'1615.1
2014-Jul-21 00:29N 57°58' E 019°59'3015.2
2014-Jul-20 22:33N 57°42' E 020°45'31 4.2
2014-Jul-20 15:15N 57°24' E 021°32'1420.0
2014-Jul-20 14:33N 57°32' E 021°12'2823.0
2014-Jul-20 13:22N 57°47' E 020°28'6215.3
2014-Jul-20 09:17N 58°22' E 018°50'1014.4
2014-Jul-20 08:33N 58°30' E 018°37'  

Dump ship's entire track history